createdAt,value
2017-10-07T00:00:23.833Z,17.85
2017-10-07T00:02:50.212Z,14.98
2017-10-07T00:05:16.614Z,13.95
2017-10-07T00:07:43.125Z,14.25
2017-10-07T00:10:09.464Z,11.15
2017-10-07T00:12:35.837Z,19.60
2017-10-07T00:15:02.222Z,14.65
2017-10-07T00:17:28.568Z,21.35
2017-10-07T00:19:55.331Z,16.98
2017-10-07T00:22:21.658Z,18.48
2017-10-07T00:24:47.989Z,22.80
2017-10-07T00:27:20.945Z,22.20
2017-10-07T00:29:47.113Z,23.55
2017-10-07T00:32:13.249Z,21.33
2017-10-07T00:34:39.749Z,27.00
2017-10-07T00:37:06.091Z,21.00
2017-10-07T00:39:32.477Z,20.95
2017-10-07T00:41:58.954Z,22.60
2017-10-07T00:44:39.696Z,23.52
2017-10-07T00:47:06.643Z,23.05
2017-10-07T00:49:32.816Z,23.40
2017-10-07T00:51:59.888Z,30.67
2017-10-07T00:54:26.065Z,23.85
2017-10-07T00:56:52.228Z,30.17
2017-10-07T00:59:27.204Z,20.75
2017-10-07T01:01:53.685Z,19.30
2017-10-07T01:04:19.855Z,19.27
2017-10-07T01:06:46.105Z,18.33
2017-10-07T01:09:12.273Z,16.65
2017-10-07T01:11:38.670Z,18.95
2017-10-07T01:14:04.957Z,19.08
2017-10-07T01:16:31.917Z,25.12
2017-10-07T01:18:58.837Z,23.73
2017-10-07T01:21:25.043Z,19.08
2017-10-07T01:23:51.210Z,12.65
2017-10-07T01:26:17.701Z,15.20
2017-10-07T01:28:43.927Z,12.27
2017-10-07T01:31:10.129Z,10.98
2017-10-07T01:33:37.095Z,13.43
2017-10-07T01:36:03.263Z,14.82
2017-10-07T01:38:29.426Z,10.45
2017-10-07T01:40:56.339Z,16.60
2017-10-07T01:43:22.587Z,12.68
2017-10-07T01:45:48.805Z,15.02
2017-10-07T01:48:15.421Z,13.05
2017-10-07T01:50:41.570Z,10.55
2017-10-07T01:53:08.506Z,13.05
2017-10-07T01:55:34.677Z,12.77
2017-10-07T01:58:00.848Z,10.15
2017-10-07T02:00:27.033Z,12.50
2017-10-07T02:02:54.274Z,15.18
2017-10-07T02:05:20.537Z,16.70
2017-10-07T02:07:46.745Z,17.23
2017-10-07T02:10:13.014Z,15.18
2017-10-07T02:12:39.320Z,10.07
2017-10-07T02:15:06.329Z,10.25
2017-10-07T02:17:32.494Z,8.70
2017-10-07T02:19:59.399Z,11.90
2017-10-07T02:22:25.556Z,9.23
2017-10-07T02:24:51.725Z,7.35
2017-10-07T02:27:18.628Z,17.60
2017-10-07T02:29:45.086Z,9.63
2017-10-07T02:32:11.275Z,12.15
2017-10-07T02:34:38.167Z,12.07
2017-10-07T02:37:04.356Z,11.32
2017-10-07T02:39:31.257Z,11.52
2017-10-07T02:41:57.511Z,7.70
2017-10-07T02:44:24.257Z,10.38
2017-10-07T02:46:50.458Z,7.85
2017-10-07T02:49:16.738Z,7.75
2017-10-07T02:51:43.119Z,10.07
2017-10-07T02:54:09.314Z,12.95
2017-10-07T02:56:35.524Z,5.87
2017-10-07T02:59:01.802Z,12.57
2017-10-07T03:01:27.961Z,10.90
2017-10-07T03:03:54.277Z,15.50
2017-10-07T03:06:20.441Z,8.10
2017-10-07T03:08:46.628Z,10.38
2017-10-07T03:11:13.525Z,10.15
2017-10-07T03:13:39.852Z,20.92
2017-10-07T03:16:06.070Z,9.60
2017-10-07T03:18:33.341Z,12.00
2017-10-07T03:21:00.248Z,16.92
2017-10-07T03:23:27.521Z,15.55
2017-10-07T03:25:53.721Z,16.25
2017-10-07T03:28:19.882Z,15.48
2017-10-07T03:30:46.154Z,12.20
2017-10-07T03:33:12.412Z,10.98
2017-10-07T03:35:39.432Z,8.98
2017-10-07T03:38:06.429Z,10.35
2017-10-07T03:40:32.621Z,8.10
2017-10-07T03:42:58.935Z,9.82
2017-10-07T03:45:25.845Z,10.90
2017-10-07T03:47:52.018Z,11.85
2017-10-07T03:50:18.926Z,18.37
2017-10-07T03:52:45.970Z,19.67
2017-10-07T03:55:12.871Z,11.93
2017-10-07T03:57:39.034Z,17.37
2017-10-07T04:00:05.210Z,8.85
2017-10-07T04:02:31.686Z,6.05
2017-10-07T04:04:57.825Z,14.52
2017-10-07T04:07:24.130Z,11.55
2017-10-07T04:09:50.324Z,8.57
2017-10-07T04:12:16.571Z,12.02
2017-10-07T04:14:42.782Z,8.70
2017-10-07T04:17:08.935Z,9.57
2017-10-07T04:19:35.205Z,10.93
2017-10-07T04:22:01.455Z,7.57
2017-10-07T04:24:27.612Z,13.38
2017-10-07T04:26:53.772Z,11.18
2017-10-07T04:29:19.929Z,10.05
2017-10-07T04:31:46.074Z,10.25
2017-10-07T04:34:12.968Z,13.93
2017-10-07T04:36:39.906Z,10.05
2017-10-07T04:39:06.083Z,15.57
2017-10-07T04:41:33.117Z,8.20
2017-10-07T04:43:59.311Z,6.15
2017-10-07T04:46:25.491Z,6.32
2017-10-07T04:48:51.669Z,10.73
2017-10-07T04:51:18.215Z,9.75
2017-10-07T04:53:44.409Z,8.75
2017-10-07T04:56:10.612Z,11.75
2017-10-07T04:58:36.777Z,10.43
2017-10-07T05:01:02.933Z,5.87
2017-10-07T05:03:29.117Z,9.88
2017-10-07T05:05:56.032Z,10.90
2017-10-07T05:08:22.185Z,9.63
2017-10-07T05:10:48.361Z,7.10
2017-10-07T05:13:14.664Z,11.15
2017-10-07T05:15:40.941Z,11.70
2017-10-07T05:18:07.845Z,11.30
2017-10-07T05:20:34.040Z,9.48
2017-10-07T05:23:00.252Z,9.27
2017-10-07T05:25:27.196Z,9.43
2017-10-07T05:27:54.447Z,10.80
2017-10-07T05:30:20.636Z,9.90
2017-10-07T05:32:47.525Z,9.05
2017-10-07T05:35:13.878Z,8.25
2017-10-07T05:37:40.486Z,12.65
2017-10-07T05:40:06.867Z,7.20
2017-10-07T05:42:33.069Z,5.87
2017-10-07T05:44:59.221Z,5.50
2017-10-07T05:47:25.570Z,7.35
2017-10-07T05:49:51.975Z,8.25
2017-10-07T05:52:21.079Z,9.52
2017-10-07T05:54:47.246Z,8.00
2017-10-07T05:57:13.498Z,5.82
2017-10-07T05:59:40.080Z,9.25
2017-10-07T06:02:06.246Z,9.05
2017-10-07T06:04:32.734Z,5.12
2017-10-07T06:06:58.982Z,7.05
2017-10-07T06:09:25.192Z,7.05
2017-10-07T06:11:51.653Z,3.15
2017-10-07T06:14:18.045Z,6.43
2017-10-07T06:16:44.289Z,7.78
2017-10-07T06:19:10.461Z,5.62
2017-10-07T06:21:36.629Z,9.00
2017-10-07T06:24:03.679Z,7.82
2017-10-07T06:26:29.872Z,8.55
2017-10-07T06:28:56.039Z,4.90
2017-10-07T06:31:22.259Z,6.03
2017-10-07T06:33:48.452Z,8.13
2017-10-07T06:36:15.570Z,8.45
2017-10-07T06:38:41.924Z,4.95
2017-10-07T06:41:08.849Z,7.80
2017-10-07T06:43:35.021Z,7.35
2017-10-07T06:46:01.249Z,6.43
2017-10-07T06:48:27.432Z,11.25
2017-10-07T06:50:53.613Z,10.55
2017-10-07T06:53:19.780Z,6.95
2017-10-07T06:55:47.030Z,5.93
2017-10-07T06:58:13.253Z,10.23
2017-10-07T07:00:39.413Z,3.85
2017-10-07T07:03:05.694Z,5.57
2017-10-07T07:05:31.925Z,5.37
2017-10-07T07:07:58.114Z,6.18
2017-10-07T07:10:24.261Z,8.68
2017-10-07T07:12:50.504Z,6.68
2017-10-07T07:15:16.794Z,7.65
2017-10-07T07:17:43.677Z,4.87
2017-10-07T07:20:09.909Z,6.62
2017-10-07T07:22:38.169Z,8.00
2017-10-07T07:25:05.287Z,9.77
2017-10-07T07:27:31.457Z,7.87
2017-10-07T07:29:57.611Z,3.95
2017-10-07T07:32:23.762Z,4.53
2017-10-07T07:34:49.930Z,7.15
2017-10-07T07:37:16.076Z,5.32
2017-10-07T07:39:42.222Z,10.15
2017-10-07T07:42:08.438Z,4.53
2017-10-07T07:44:34.789Z,5.10
2017-10-07T07:47:02.083Z,4.68
2017-10-07T07:49:28.312Z,4.62
2017-10-07T07:51:54.462Z,10.13
2017-10-07T07:54:20.941Z,8.52
2017-10-07T07:56:47.430Z,7.97
2017-10-07T07:59:13.665Z,7.72
2017-10-07T08:01:40.111Z,5.95
2017-10-07T08:04:06.342Z,11.65
2017-10-07T08:06:33.245Z,7.30
2017-10-07T08:09:00.172Z,9.55
2017-10-07T08:11:26.910Z,9.50
2017-10-07T08:13:53.083Z,7.10
2017-10-07T08:16:19.287Z,5.75
2017-10-07T08:18:46.194Z,9.00
2017-10-07T08:21:12.347Z,8.93
2017-10-07T08:23:38.842Z,5.68
2017-10-07T08:26:05.098Z,5.72
2017-10-07T08:28:32.284Z,8.35
2017-10-07T08:30:59.676Z,3.90
2017-10-07T08:33:26.828Z,13.88
2017-10-07T08:36:01.228Z,10.27
2017-10-07T08:38:27.397Z,7.47
2017-10-07T08:40:53.560Z,7.75
2017-10-07T08:43:19.725Z,4.70
2017-10-07T08:45:45.892Z,3.12
2017-10-07T08:48:12.322Z,3.75
2017-10-07T08:50:38.565Z,4.45
2017-10-07T08:53:05.336Z,5.55
2017-10-07T08:55:31.700Z,5.50
2017-10-07T08:57:57.882Z,7.15
2017-10-07T09:00:24.103Z,5.55
2017-10-07T09:02:50.283Z,4.65
2017-10-07T09:05:17.201Z,9.52
2017-10-07T09:07:43.369Z,7.00
2017-10-07T09:10:11.104Z,5.28
2017-10-07T09:12:37.461Z,6.68
2017-10-07T09:15:03.657Z,6.65
2017-10-07T09:20:00.994Z,4.78
2017-10-07T09:22:27.175Z,8.23
2017-10-07T09:24:53.787Z,6.30
2017-10-07T09:27:19.957Z,5.47
2017-10-07T09:29:46.116Z,5.72
2017-10-07T09:32:12.295Z,6.05
2017-10-07T09:34:38.534Z,7.12
2017-10-07T09:37:04.719Z,8.55
2017-10-07T09:39:33.213Z,4.95
2017-10-07T09:41:59.398Z,6.12
2017-10-07T09:44:26.322Z,8.75
2017-10-07T09:46:52.525Z,7.68
2017-10-07T09:49:19.674Z,7.25
2017-10-07T09:51:45.965Z,6.70
2017-10-07T09:54:12.150Z,6.47
2017-10-07T09:56:39.057Z,3.72
2017-10-07T09:59:05.255Z,6.12
2017-10-07T10:01:32.178Z,5.90
2017-10-07T10:03:58.394Z,4.62
2017-10-07T10:06:24.633Z,6.25
2017-10-07T10:08:50.841Z,7.97
2017-10-07T10:11:17.773Z,9.35
2017-10-07T10:13:43.946Z,5.28
2017-10-07T10:16:10.133Z,3.90
2017-10-07T10:18:36.509Z,4.80
2017-10-07T10:21:03.148Z,5.65
2017-10-07T10:23:29.293Z,6.93
2017-10-07T10:25:56.230Z,5.00
2017-10-07T10:28:22.477Z,6.20
2017-10-07T10:30:54.824Z,4.28
2017-10-07T10:33:21.013Z,8.38
2017-10-07T10:35:47.197Z,7.95
2017-10-07T10:38:13.423Z,4.82
2017-10-07T10:40:41.524Z,4.80
2017-10-07T10:43:07.775Z,4.25
2017-10-07T10:45:33.972Z,7.70
2017-10-07T10:48:00.165Z,6.40
2017-10-07T10:50:27.077Z,3.75
2017-10-07T10:52:53.238Z,7.68
2017-10-07T10:55:35.397Z,3.92
2017-10-07T10:58:02.423Z,8.43
2017-10-07T11:00:28.606Z,7.72
2017-10-07T11:02:55.521Z,7.35
2017-10-07T11:05:21.739Z,4.97
2017-10-07T11:07:48.134Z,6.93
2017-10-07T11:10:14.529Z,4.30
2017-10-07T11:12:41.010Z,6.07
2017-10-07T11:15:07.448Z,6.22
2017-10-07T11:17:34.566Z,4.12
2017-10-07T11:20:01.001Z,5.80
2017-10-07T11:22:43.993Z,5.60
2017-10-07T11:25:12.948Z,5.03
2017-10-07T11:27:43.999Z,5.40
2017-10-07T11:30:10.219Z,4.05
2017-10-07T11:32:37.181Z,6.62
2017-10-07T11:35:05.419Z,14.95
2017-10-07T11:37:31.741Z,4.93
2017-10-07T11:39:57.937Z,4.65
2017-10-07T11:42:24.139Z,3.12
2017-10-07T11:44:50.338Z,4.10
2017-10-07T11:47:16.531Z,4.75
2017-10-07T11:49:46.790Z,4.30
2017-10-07T11:52:14.971Z,5.45
2017-10-07T11:54:41.207Z,4.47
2017-10-07T11:57:08.163Z,6.20
2017-10-07T11:59:35.968Z,4.70
2017-10-07T12:02:09.835Z,7.95
2017-10-07T12:04:36.013Z,6.03
2017-10-07T12:07:02.243Z,3.87
2017-10-07T12:09:29.261Z,5.55
2017-10-07T12:11:55.430Z,4.35
2017-10-07T12:14:25.468Z,4.12
2017-10-07T12:16:52.193Z,4.00
2017-10-07T12:19:31.605Z,3.90
2017-10-07T12:21:57.833Z,9.73
2017-10-07T12:24:24.040Z,5.80
2017-10-07T12:27:06.374Z,4.78
2017-10-07T12:29:38.687Z,5.65
2017-10-07T12:32:04.870Z,7.85
2017-10-07T12:34:31.116Z,4.45
2017-10-07T12:36:57.316Z,3.67
2017-10-07T12:39:23.533Z,6.40
2017-10-07T12:41:49.745Z,4.12
2017-10-07T12:44:15.986Z,5.87
2017-10-07T12:46:43.591Z,6.43
2017-10-07T12:49:09.764Z,4.78
2017-10-07T12:51:35.957Z,3.72
2017-10-07T12:54:04.009Z,3.03
2017-10-07T12:56:30.190Z,3.60
2017-10-07T12:58:57.685Z,3.80
2017-10-07T13:01:23.823Z,3.75
2017-10-07T13:03:56.700Z,5.05
2017-10-07T13:06:22.878Z,4.05
2017-10-07T13:08:49.152Z,3.80
2017-10-07T13:11:15.307Z,5.30
2017-10-07T13:13:41.448Z,3.67
2017-10-07T13:16:07.598Z,6.80
2017-10-07T13:21:06.673Z,5.55
2017-10-07T13:23:33.809Z,8.35
2017-10-07T13:26:00.210Z,5.70
2017-10-07T13:28:26.604Z,5.07
2017-10-07T13:30:53.038Z,6.05
2017-10-07T13:33:21.618Z,5.68
2017-10-07T13:35:48.897Z,6.12
2017-10-07T13:38:16.244Z,9.27
2017-10-07T13:40:42.607Z,6.85
2017-10-07T13:43:09.017Z,4.60
2017-10-07T13:45:35.376Z,4.57
2017-10-07T13:48:02.857Z,4.80
2017-10-07T13:50:29.238Z,6.47
2017-10-07T13:52:56.709Z,5.25
2017-10-07T13:55:23.042Z,4.70
2017-10-07T13:58:04.403Z,5.28
2017-10-07T14:00:33.970Z,6.30
2017-10-07T14:03:00.625Z,7.60
2017-10-07T14:05:30.173Z,8.55
2017-10-07T14:07:57.322Z,8.95
2017-10-07T14:10:24.242Z,5.95
2017-10-07T14:12:50.598Z,5.72
2017-10-07T14:15:17.153Z,7.75
2017-10-07T14:17:47.254Z,15.05
2017-10-07T14:20:13.666Z,7.93
2017-10-07T14:22:40.790Z,6.50
2017-10-07T14:25:07.223Z,8.20
2017-10-07T14:27:33.573Z,24.33
2017-10-07T14:30:00.832Z,45.75
2017-10-07T14:32:27.197Z,24.65
2017-10-07T14:34:54.296Z,9.73
2017-10-07T14:37:21.378Z,12.57
2017-10-07T14:39:48.124Z,28.60
2017-10-07T14:42:16.360Z,9.32
2017-10-07T14:44:42.792Z,22.33
2017-10-07T14:47:09.274Z,19.60
2017-10-07T14:49:35.752Z,8.90
2017-10-07T14:52:05.073Z,8.50
2017-10-07T14:54:32.204Z,13.80
2017-10-07T14:56:58.605Z,7.90
2017-10-07T14:59:25.228Z,8.40
2017-10-07T15:01:58.504Z,8.40
2017-10-07T15:04:27.267Z,7.55
2017-10-07T15:06:54.269Z,16.33
2017-10-07T15:09:20.765Z,23.92
2017-10-07T15:11:47.266Z,8.45
2017-10-07T15:14:19.906Z,13.38
2017-10-07T15:16:46.656Z,9.93
2017-10-07T15:19:13.097Z,8.77
2017-10-07T15:21:40.205Z,5.20
2017-10-07T15:24:06.590Z,6.53
2017-10-07T15:26:32.938Z,5.75
2017-10-07T15:28:59.391Z,5.80
2017-10-07T15:31:31.165Z,9.75
2017-10-07T15:33:57.533Z,9.90
2017-10-07T15:36:23.976Z,10.57
2017-10-07T15:38:51.910Z,16.02
2017-10-07T15:41:18.283Z,31.75
2017-10-07T15:43:44.630Z,4.78
2017-10-07T15:46:15.288Z,11.90
2017-10-07T15:48:41.726Z,21.05
2017-10-07T15:51:08.865Z,6.93
2017-10-07T15:53:35.293Z,19.05
2017-10-07T15:56:03.056Z,6.30
2017-10-07T15:58:29.563Z,4.90
2017-10-07T16:00:55.945Z,3.62
2017-10-07T16:03:22.351Z,5.47
2017-10-07T16:05:49.454Z,4.12
2017-10-07T16:08:15.797Z,3.58
2017-10-07T16:10:47.428Z,4.35
2017-10-07T16:13:13.895Z,6.47
2017-10-07T16:15:40.274Z,7.25
2017-10-07T16:18:06.656Z,4.30
2017-10-07T16:20:33.049Z,5.68
2017-10-07T16:22:59.445Z,34.75
2017-10-07T16:25:36.295Z,17.12
2017-10-07T16:28:02.461Z,5.53
2017-10-07T16:30:28.810Z,4.60
2017-10-07T16:32:55.120Z,4.40
2017-10-07T16:35:22.033Z,6.30
2017-10-07T16:37:48.419Z,5.50
2017-10-07T16:40:15.345Z,4.53
2017-10-07T16:42:41.525Z,4.57
2017-10-07T16:45:09.853Z,5.85
2017-10-07T16:47:36.053Z,4.47
2017-10-07T16:50:02.386Z,6.82
2017-10-07T16:52:28.694Z,4.90
2017-10-07T16:54:54.929Z,8.13
2017-10-07T16:57:21.921Z,3.78
2017-10-07T16:59:56.683Z,7.00
2017-10-07T17:02:34.989Z,4.45
2017-10-07T17:05:01.178Z,7.40
2017-10-07T17:07:27.391Z,5.32
2017-10-07T17:09:54.277Z,4.95
2017-10-07T17:12:20.482Z,4.43
2017-10-07T17:14:47.579Z,5.40
2017-10-07T17:17:13.814Z,4.00
2017-10-07T17:19:39.958Z,3.67
2017-10-07T17:22:06.098Z,4.18
2017-10-07T17:24:32.270Z,5.18
2017-10-07T17:26:58.431Z,4.78
2017-10-07T17:29:25.307Z,4.00
2017-10-07T17:31:51.465Z,7.40
2017-10-07T17:34:17.626Z,3.80
2017-10-07T17:36:44.225Z,3.83
2017-10-07T17:39:10.425Z,4.50
2017-10-07T17:41:36.557Z,3.75
2017-10-07T17:44:02.728Z,3.75
2017-10-07T17:46:29.645Z,6.22
2017-10-07T17:48:55.812Z,3.85
2017-10-07T17:51:21.952Z,3.85
2017-10-07T17:53:48.127Z,4.37
2017-10-07T17:56:14.301Z,4.78
2017-10-07T17:58:40.469Z,4.95
2017-10-07T18:01:06.729Z,6.32
2017-10-07T18:03:33.627Z,7.07
2017-10-07T18:05:59.846Z,9.02
2017-10-07T18:08:25.981Z,8.43
2017-10-07T18:10:52.166Z,11.77
2017-10-07T18:13:18.306Z,7.62
2017-10-07T18:15:44.521Z,5.97
2017-10-07T18:18:10.662Z,5.62
2017-10-07T18:20:36.831Z,6.25
2017-10-07T18:23:02.972Z,6.37
2017-10-07T18:25:29.105Z,5.10
2017-10-07T18:27:55.257Z,5.30
2017-10-07T18:30:22.789Z,5.37
2017-10-07T18:32:48.943Z,4.85
2017-10-07T18:35:15.843Z,7.10
2017-10-07T18:37:41.974Z,6.07
2017-10-07T18:40:08.852Z,5.65
2017-10-07T18:42:35.080Z,5.70
2017-10-07T18:45:01.274Z,5.40
2017-10-07T18:47:27.462Z,5.45
2017-10-07T18:49:54.321Z,5.55
2017-10-07T18:52:22.093Z,5.03
2017-10-07T18:57:25.525Z,5.50
2017-10-07T18:59:51.761Z,4.82
2017-10-07T19:02:18.659Z,7.90
2017-10-07T19:04:44.904Z,5.95
2017-10-07T19:07:11.795Z,5.07
2017-10-07T19:09:38.733Z,7.65
2017-10-07T19:12:04.969Z,6.30
2017-10-07T19:14:35.149Z,7.43
2017-10-07T19:17:01.314Z,6.50
2017-10-07T19:19:27.461Z,6.15
2017-10-07T19:21:53.726Z,6.47
2017-10-07T19:24:20.766Z,7.75
2017-10-07T19:26:46.929Z,5.93
2017-10-07T19:29:13.069Z,9.55
2017-10-07T19:31:39.963Z,7.45
2017-10-07T19:34:06.112Z,7.10
2017-10-07T19:36:32.314Z,6.82
2017-10-07T19:38:58.457Z,6.57
2017-10-07T19:41:24.585Z,7.62
2017-10-07T19:43:50.740Z,6.00
2017-10-07T19:46:16.909Z,4.70
2017-10-07T19:48:43.045Z,5.20
2017-10-07T19:51:09.186Z,7.70
2017-10-07T19:53:35.334Z,5.85
2017-10-07T19:56:01.481Z,5.65
2017-10-07T19:58:27.647Z,7.07
2017-10-07T20:00:54.529Z,6.45
2017-10-07T20:03:20.679Z,5.90
2017-10-07T20:05:46.831Z,6.00
2017-10-07T20:08:13.782Z,6.55
2017-10-07T20:10:39.928Z,8.93
2017-10-07T20:13:06.113Z,9.25
2017-10-07T20:15:32.252Z,6.68
2017-10-07T20:17:58.405Z,8.65
2017-10-07T20:20:24.581Z,7.20
2017-10-07T20:23:00.085Z,7.57
2017-10-07T20:25:28.394Z,7.75
2017-10-07T20:27:54.547Z,7.95
2017-10-07T20:30:20.838Z,9.20
2017-10-07T20:32:46.997Z,8.38
2017-10-07T20:35:19.043Z,6.78
2017-10-07T20:37:51.925Z,6.65
2017-10-07T20:40:26.056Z,8.30
2017-10-07T20:43:03.108Z,5.50
2017-10-07T20:45:29.959Z,7.70
2017-10-07T20:47:56.285Z,8.88
2017-10-07T20:50:22.629Z,6.37
2017-10-07T20:52:48.990Z,5.28
2017-10-07T20:55:16.134Z,5.47
2017-10-07T20:57:42.476Z,4.60
2017-10-07T21:00:08.813Z,5.20
2017-10-07T21:02:35.154Z,4.15
2017-10-07T21:05:01.504Z,5.15
2017-10-07T21:07:28.621Z,5.37
2017-10-07T21:10:01.709Z,4.57
2017-10-07T21:12:30.699Z,7.57
2017-10-07T21:14:57.071Z,4.72
2017-10-07T21:17:24.242Z,5.10
2017-10-07T21:19:51.573Z,4.45
2017-10-07T21:22:17.966Z,4.82
2017-10-07T21:24:45.089Z,4.93
2017-10-07T21:27:14.985Z,5.85
2017-10-07T21:29:42.099Z,5.85
2017-10-07T21:32:09.364Z,5.47
2017-10-07T21:34:35.956Z,6.15
2017-10-07T21:37:02.362Z,7.43
2017-10-07T21:39:28.701Z,6.82
2017-10-07T21:41:55.074Z,8.35
2017-10-07T21:44:21.436Z,7.07
2017-10-07T21:46:47.833Z,7.32
2017-10-07T21:49:14.185Z,7.82
2017-10-07T21:51:41.356Z,8.40
2017-10-07T21:54:07.806Z,9.27
2017-10-07T21:56:35.593Z,8.02
2017-10-07T21:59:02.370Z,7.85
2017-10-07T22:01:28.761Z,8.25
2017-10-07T22:03:55.889Z,9.80
2017-10-07T22:06:22.227Z,8.13
2017-10-07T22:08:48.598Z,10.48
2017-10-07T22:11:14.958Z,8.73
2017-10-07T22:13:41.318Z,8.85
2017-10-07T22:16:07.673Z,9.73
2017-10-07T22:18:33.998Z,9.02
2017-10-07T22:21:00.348Z,8.63
2017-10-07T22:23:27.006Z,7.97
2017-10-07T22:25:54.122Z,8.38
2017-10-07T22:28:20.622Z,9.10
2017-10-07T22:30:51.242Z,9.18
2017-10-07T22:33:18.853Z,7.55
2017-10-07T22:35:45.217Z,7.78
2017-10-07T22:38:11.565Z,8.55
2017-10-07T22:40:37.984Z,9.13
2017-10-07T22:43:10.986Z,8.77
2017-10-07T22:45:38.217Z,8.55
2017-10-07T22:48:04.934Z,9.77
2017-10-07T22:50:31.306Z,9.52
2017-10-07T22:52:57.795Z,8.30
2017-10-07T22:55:24.170Z,11.12
2017-10-07T22:57:50.680Z,8.88
2017-10-07T23:00:17.029Z,10.00
2017-10-07T23:02:43.380Z,10.50
2017-10-07T23:05:09.763Z,11.38
2017-10-07T23:07:36.117Z,11.15
2017-10-07T23:10:02.449Z,10.20
2017-10-07T23:12:28.797Z,10.18
2017-10-07T23:14:55.165Z,9.95
2017-10-07T23:17:22.233Z,9.88
2017-10-07T23:19:49.477Z,11.02
2017-10-07T23:22:33.673Z,10.73
2017-10-07T23:25:00.025Z,11.15
2017-10-07T23:27:26.384Z,13.15
2017-10-07T23:29:52.722Z,10.23
2017-10-07T23:32:19.253Z,10.65
2017-10-07T23:34:45.605Z,11.73
2017-10-07T23:37:11.933Z,11.82
2017-10-07T23:39:38.201Z,14.35
2017-10-07T23:42:04.540Z,14.50
2017-10-07T23:44:30.919Z,12.68
2017-10-07T23:46:57.245Z,14.35
2017-10-07T23:49:23.616Z,13.43
2017-10-07T23:51:50.689Z,16.90
2017-10-07T23:54:17.063Z,14.73
2017-10-07T23:56:43.415Z,16.08
2017-10-07T23:59:12.823Z,15.70
